createdAt,value
2023-01-09T00:01:31.921Z,20.04
2023-01-09T00:06:24.887Z,20.02
2023-01-09T00:11:18.060Z,19.86
2023-01-09T00:16:10.853Z,19.85
2023-01-09T00:21:05.757Z,19.95
2023-01-09T00:26:07.116Z,19.81
2023-01-09T00:31:01.780Z,19.89
2023-01-09T00:35:55.640Z,19.86
2023-01-09T00:40:49.591Z,19.86
2023-01-09T00:45:44.003Z,19.84
2023-01-09T00:50:38.597Z,19.82
2023-01-09T00:55:32.657Z,19.81
2023-01-09T01:00:26.676Z,19.60
2023-01-09T01:05:39.136Z,19.66
2023-01-09T01:10:32.902Z,19.70
2023-01-09T01:15:30.091Z,19.80
2023-01-09T01:20:23.404Z,19.79
2023-01-09T01:25:20.674Z,19.79
2023-01-09T01:30:16.315Z,19.57
2023-01-09T01:35:10.657Z,19.71
2023-01-09T01:40:06.069Z,19.65
2023-01-09T01:45:13.833Z,19.65
2023-01-09T01:50:27.371Z,19.63
2023-01-09T01:55:21.834Z,19.41
2023-01-09T02:00:17.770Z,19.46
2023-01-09T02:05:12.052Z,19.55
2023-01-09T02:10:06.442Z,19.47
2023-01-09T02:15:03.028Z,19.51
2023-01-09T02:20:54.699Z,19.49
2023-01-09T02:26:24.646Z,19.47
2023-01-09T02:31:45.781Z,19.43
2023-01-09T02:37:01.665Z,19.40
2023-01-09T02:42:04.516Z,19.28
2023-01-09T02:47:09.367Z,19.34
2023-01-09T02:52:40.803Z,19.36
2023-01-09T02:58:04.898Z,19.32
2023-01-09T03:03:06.503Z,19.30
2023-01-09T03:08:07.238Z,19.30
2023-01-09T03:13:06.802Z,19.26
2023-01-09T03:18:02.121Z,19.15
2023-01-09T03:23:03.289Z,19.13
2023-01-09T03:28:05.498Z,19.21
2023-01-09T03:32:59.631Z,19.19
2023-01-09T03:37:52.674Z,19.07
2023-01-09T03:42:46.732Z,19.09
2023-01-09T03:47:40.105Z,19.12
2023-01-09T03:52:33.546Z,18.98
2023-01-09T03:57:26.520Z,19.09
2023-01-09T04:02:20.755Z,18.99
2023-01-09T04:07:14.518Z,18.90
2023-01-09T04:12:08.720Z,19.01
2023-01-09T04:17:02.781Z,18.95
2023-01-09T04:21:56.282Z,19.00
2023-01-09T04:26:49.239Z,18.99
2023-01-09T04:31:42.845Z,18.90
2023-01-09T04:36:36.858Z,18.87
2023-01-09T04:41:48.619Z,18.96
2023-01-09T04:46:41.666Z,18.85
2023-01-09T04:51:35.259Z,18.94
2023-01-09T04:56:28.797Z,18.84
2023-01-09T05:01:22.720Z,18.93
2023-01-09T05:06:16.249Z,18.80
2023-01-09T05:11:10.689Z,18.87
2023-01-09T05:16:07.830Z,18.86
2023-01-09T05:21:01.344Z,18.83
2023-01-09T05:25:54.699Z,18.72
2023-01-09T05:30:48.685Z,18.83
2023-01-09T05:35:41.677Z,18.71
2023-01-09T05:40:40.463Z,18.72
2023-01-09T05:45:33.456Z,18.78
2023-01-09T05:50:27.354Z,18.70
2023-01-09T05:55:20.936Z,18.76
2023-01-09T06:00:16.580Z,18.63
2023-01-09T06:05:09.843Z,18.64
2023-01-09T06:10:04.476Z,18.73
2023-01-09T06:15:00.582Z,18.72
2023-01-09T06:19:53.698Z,18.74
2023-01-09T06:24:47.589Z,18.75
2023-01-09T06:29:45.204Z,18.68
2023-01-09T06:34:38.873Z,18.56
2023-01-09T06:39:32.775Z,18.67
2023-01-09T06:44:26.127Z,18.55
2023-01-09T06:49:23.861Z,18.63
2023-01-09T06:54:18.090Z,18.61
2023-01-09T06:59:12.189Z,18.63
2023-01-09T07:04:06.504Z,18.67
2023-01-09T07:08:59.857Z,18.59
2023-01-09T07:13:53.628Z,18.77
2023-01-09T07:18:47.511Z,18.67
2023-01-09T07:23:40.887Z,18.71
2023-01-09T07:28:34.499Z,18.66
2023-01-09T07:33:28.755Z,18.84
2023-01-09T07:38:22.755Z,18.83
2023-01-09T07:43:16.688Z,18.85
2023-01-09T07:48:11.276Z,18.84
2023-01-09T07:53:04.817Z,18.74
2023-01-09T07:57:58.695Z,18.80
2023-01-09T08:02:54.936Z,18.69
2023-01-09T08:07:48.809Z,18.82
2023-01-09T08:12:43.882Z,18.81
2023-01-09T08:17:37.721Z,18.81
2023-01-09T08:22:31.212Z,18.70
2023-01-09T08:27:25.118Z,18.81
2023-01-09T08:32:18.116Z,18.61
2023-01-09T08:37:11.162Z,18.75
2023-01-09T08:42:23.913Z,18.80
2023-01-09T08:47:21.483Z,18.80
2023-01-09T08:52:14.851Z,18.87
2023-01-09T08:57:08.238Z,18.89
2023-01-09T09:02:02.377Z,18.89
2023-01-09T09:06:56.684Z,18.87
2023-01-09T09:11:50.217Z,18.86
2023-01-09T09:16:43.513Z,18.77
2023-01-09T09:21:36.980Z,18.85
2023-01-09T09:26:30.685Z,18.71
2023-01-09T09:31:24.758Z,18.65
2023-01-09T09:36:18.905Z,18.77
2023-01-09T09:41:47.151Z,18.78
2023-01-09T09:47:09.182Z,18.84
2023-01-09T09:52:14.857Z,18.84
2023-01-09T09:57:15.291Z,18.90
2023-01-09T10:02:40.227Z,18.95
2023-01-09T10:07:42.178Z,18.86
2023-01-09T10:12:57.020Z,18.93
2023-01-09T10:17:50.118Z,18.96
2023-01-09T10:23:00.658Z,18.96
2023-01-09T10:28:05.199Z,18.96
2023-01-09T10:33:19.058Z,19.00
2023-01-09T10:38:18.836Z,19.05
2023-01-09T10:43:30.071Z,19.07
2023-01-09T10:48:37.941Z,19.10
2023-01-09T10:53:41.824Z,19.08
2023-01-09T10:58:35.648Z,18.98
2023-01-09T11:03:29.588Z,19.07
2023-01-09T11:08:44.925Z,19.18
2023-01-09T11:13:46.856Z,19.16
2023-01-09T11:18:55.210Z,19.18
2023-01-09T11:23:51.000Z,19.12
2023-01-09T11:28:46.719Z,19.12
2023-01-09T11:33:51.122Z,19.17
2023-01-09T11:38:58.733Z,19.27
2023-01-09T11:43:54.968Z,19.19
2023-01-09T11:48:57.438Z,19.10
2023-01-09T11:54:30.999Z,19.16
2023-01-09T11:59:48.463Z,19.17
2023-01-09T12:04:55.810Z,19.14
2023-01-09T12:09:51.388Z,19.12
2023-01-09T12:15:10.203Z,19.09
2023-01-09T12:20:53.817Z,19.11
2023-01-09T12:26:02.088Z,18.91
2023-01-09T12:31:11.139Z,18.93
2023-01-09T12:36:41.100Z,19.16
2023-01-09T12:41:45.662Z,19.20
2023-01-09T12:47:01.058Z,19.22
2023-01-09T12:52:18.300Z,19.21
2023-01-09T12:57:51.886Z,19.32
2023-01-09T13:02:44.319Z,19.37
2023-01-09T13:07:50.794Z,19.24
2023-01-09T13:13:09.687Z,19.36
2023-01-09T13:18:13.456Z,19.35
2023-01-09T13:23:28.794Z,19.36
2023-01-09T13:29:04.016Z,19.40
2023-01-09T13:34:02.896Z,19.41
2023-01-09T13:39:01.139Z,19.22
2023-01-09T13:44:24.934Z,19.40
2023-01-09T13:49:44.322Z,19.42
2023-01-09T13:54:51.790Z,19.42
2023-01-09T13:59:46.354Z,19.31
2023-01-09T14:04:44.586Z,19.44
2023-01-09T14:09:38.643Z,19.34
2023-01-09T14:14:35.074Z,19.43
2023-01-09T14:19:39.675Z,19.46
2023-01-09T14:25:05.964Z,19.36
2023-01-09T14:30:26.915Z,19.31
2023-01-09T14:35:28.486Z,19.34
2023-01-09T14:40:24.281Z,19.43
2023-01-09T14:45:38.316Z,19.43
2023-01-09T14:50:55.989Z,19.42
2023-01-09T14:56:00.604Z,19.30
2023-01-09T15:01:08.744Z,19.40
2023-01-09T15:06:02.927Z,19.37
2023-01-09T15:10:58.310Z,19.36
2023-01-09T15:15:51.137Z,19.46
2023-01-09T15:20:44.668Z,19.47
2023-01-09T15:25:40.671Z,19.47
2023-01-09T15:30:35.915Z,19.50
2023-01-09T15:35:29.557Z,19.38
2023-01-09T15:41:02.489Z,19.51
2023-01-09T15:45:57.329Z,19.49
2023-01-09T15:51:18.963Z,19.49
2023-01-09T15:56:20.764Z,19.42
2023-01-09T16:01:42.042Z,19.54
2023-01-09T16:06:37.968Z,19.45
2023-01-09T16:11:38.288Z,19.53
2023-01-09T16:16:35.771Z,19.47
2023-01-09T16:21:38.197Z,19.47
2023-01-09T16:26:33.157Z,19.59
2023-01-09T16:31:30.572Z,19.63
2023-01-09T16:36:23.776Z,19.64
2023-01-09T16:41:40.596Z,19.46
2023-01-09T16:46:36.065Z,19.68
2023-01-09T16:51:30.038Z,19.73
2023-01-09T16:56:49.203Z,19.74
2023-01-09T17:01:44.285Z,19.64
2023-01-09T17:06:39.986Z,19.75
2023-01-09T17:11:33.345Z,19.78
2023-01-09T17:16:26.650Z,19.76
2023-01-09T17:21:22.638Z,19.77
2023-01-09T17:26:39.985Z,19.78
2023-01-09T17:31:35.425Z,19.69
2023-01-09T17:36:32.678Z,19.71
2023-01-09T17:41:29.257Z,19.70
2023-01-09T17:46:48.288Z,19.82
2023-01-09T17:51:42.161Z,19.78
2023-01-09T17:56:38.731Z,19.75
2023-01-09T18:01:32.595Z,19.63
2023-01-09T18:06:26.959Z,19.64
2023-01-09T18:11:22.175Z,19.77
2023-01-09T18:16:18.687Z,19.65
2023-01-09T18:21:15.552Z,19.65
2023-01-09T18:26:10.341Z,19.78
2023-01-09T18:31:03.797Z,19.71
2023-01-09T18:35:57.259Z,19.86
2023-01-09T18:40:51.114Z,19.91
2023-01-09T18:45:45.200Z,19.92
2023-01-09T18:50:38.528Z,19.85
2023-01-09T18:55:32.204Z,19.84
2023-01-09T19:00:25.549Z,19.84
2023-01-09T19:05:19.424Z,19.86
2023-01-09T19:10:13.810Z,19.74
2023-01-09T19:15:11.746Z,19.85
2023-01-09T19:20:05.548Z,19.85
2023-01-09T19:24:59.041Z,19.70
2023-01-09T19:29:53.193Z,19.82
2023-01-09T19:34:47.311Z,19.76
2023-01-09T19:39:41.191Z,19.71
2023-01-09T19:44:34.887Z,19.64
2023-01-09T19:49:28.622Z,19.65
2023-01-09T19:54:21.210Z,19.74
2023-01-09T19:59:16.163Z,19.73
2023-01-09T20:04:13.861Z,19.62
2023-01-09T20:09:08.265Z,19.69
2023-01-09T20:14:01.130Z,19.61
2023-01-09T20:18:57.699Z,19.57
2023-01-09T20:23:54.057Z,19.67
2023-01-09T20:28:48.031Z,19.57
2023-01-09T20:33:42.152Z,19.11
2023-01-09T20:38:35.787Z,18.28
2023-01-09T20:43:29.788Z,17.67
2023-01-09T20:48:23.355Z,18.35
2023-01-09T20:53:17.263Z,18.68
2023-01-09T20:58:11.647Z,18.91
2023-01-09T21:03:06.174Z,19.13
2023-01-09T21:08:00.329Z,19.10
2023-01-09T21:12:54.697Z,19.28
2023-01-09T21:17:48.369Z,19.17
2023-01-09T21:22:41.988Z,19.23
2023-01-09T21:27:40.700Z,19.44
2023-01-09T21:32:33.712Z,19.42
2023-01-09T21:37:29.828Z,19.56
2023-01-09T21:42:41.358Z,19.59
2023-01-09T21:47:39.344Z,19.55
2023-01-09T21:52:35.684Z,19.54
2023-01-09T21:57:28.997Z,19.59
2023-01-09T22:02:22.869Z,19.73
2023-01-09T22:07:17.417Z,19.62
2023-01-09T22:12:13.450Z,19.75
2023-01-09T22:17:06.819Z,19.65
2023-01-09T22:22:00.503Z,19.64
2023-01-09T22:26:54.796Z,19.72
2023-01-09T22:31:49.138Z,19.73
2023-01-09T22:36:42.877Z,19.64
2023-01-09T22:41:36.753Z,19.74
2023-01-09T22:46:30.866Z,19.62
2023-01-09T22:51:24.908Z,19.65
2023-01-09T22:56:22.572Z,19.74
2023-01-09T23:01:15.512Z,19.75
2023-01-09T23:06:28.894Z,19.76
2023-01-09T23:11:44.563Z,19.57
2023-01-09T23:16:37.686Z,19.76
2023-01-09T23:21:31.751Z,19.77
2023-01-09T23:26:24.869Z,19.67
2023-01-09T23:31:18.467Z,19.78
2023-01-09T23:36:12.753Z,19.66
2023-01-09T23:41:09.198Z,19.67
2023-01-09T23:46:03.034Z,19.74
2023-01-09T23:50:56.820Z,19.70
2023-01-09T23:55:51.508Z,19.71
